Terminal Aerodrome Forecast
Issued by NWS

Home | Current Version | Previous Version | Text Only | Print | Product List | Glossary On
Versions: 1 2 3 4 5 6 7 8 9 10 11 12 13 14 15 16
000
FTAK31 PANC 281739
TAFAAQ
TAF
PAAQ 281739Z 2818/2918 VRB05KT 6SM -SHRA BR BKN030 OVC060
      TEMPO 2818/2820 3SM BR BKN003
     FM282100 13005KT P6SM VCSH BKN035 OVC060
     FM282300 15012G20KT P6SM VCSH BKN050
     FM290500 12007KT P6SM VCSH BKN050
     FM290900 VRB05KT P6SM BKN050=

USA.gov is the U.S. government's official web portal to all federal, state and local government web resources and services.